Time;durP1;ratioP1;P1;durP2;ratioP2;P2;SDS_P1;SDS_P2;PMS_P1;PMS_P2;Temp;Humidity;BMP_temperature;BMP_pressure;BME280_temperature;BME280_humidity;BME280_pressure;Samples;Min_cycle;Max_cycle;Signal;HPM_P1;HPM_P2
2021/12/15 00:02:18;;;;;;;37.78;19.23;;;10.70;99.90;;;;;;5111712;27;35464;-63
2021/12/15 00:04:47;;;;;;;38.67;19.05;;;10.70;99.90;;;;;;5112051;27;38389;-63
2021/12/15 00:07:15;;;;;;;38.17;18.73;;;10.70;99.90;;;;;;5111351;27;39650;-62
2021/12/15 00:09:44;;;;;;;38.00;18.92;;;10.70;99.90;;;;;;5111566;27;37939;-63
2021/12/15 00:12:13;;;;;;;40.72;19.27;;;10.70;99.90;;;;;;5112060;27;38071;-63
2021/12/15 00:14:41;;;;;;;43.25;19.42;;;10.70;99.90;;;;;;5111636;27;39892;-63
2021/12/15 00:17:09;;;;;;;37.97;18.52;;;10.80;99.90;;;;;;5111144;27;36968;-64
2021/12/15 00:19:37;;;;;;;41.03;18.60;;;10.70;99.90;;;;;;5111766;27;37189;-62
2021/12/15 00:22:06;;;;;;;38.35;18.92;;;10.70;99.90;;;;;;5112009;27;36871;-63
2021/12/15 00:24:33;;;;;;;45.42;19.52;;;10.70;99.90;;;;;;5110071;27;38994;-62
2021/12/15 00:27:03;;;;;;;39.35;19.38;;;10.70;99.90;;;;;;5111854;27;36577;-63
2021/12/15 00:29:30;;;;;;;44.08;18.67;;;10.70;99.90;;;;;;5112657;27;38394;-62
2021/12/15 00:31:58;;;;;;;39.13;18.83;;;10.70;99.90;;;;;;5110949;27;37345;-62
2021/12/15 00:34:26;;;;;;;44.65;18.67;;;10.70;99.90;;;;;;5112364;27;37775;-62
2021/12/15 00:36:53;;;;;;;40.95;19.17;;;10.70;99.90;;;;;;5115660;27;38038;-62
2021/12/15 00:39:22;;;;;;;35.65;17.85;;;10.70;99.90;;;;;;5115694;27;37069;-62
2021/12/15 00:41:53;;;;;;;36.70;17.80;;;10.70;99.90;;;;;;5116111;27;36567;-63
2021/12/15 00:44:25;;;;;;;34.85;17.15;;;10.70;99.90;;;;;;5115863;27;37281;-62
2021/12/15 00:46:53;;;;;;;32.63;17.85;;;10.70;99.90;;;;;;5114181;27;37486;-63
2021/12/15 00:49:21;;;;;;;39.30;17.23;;;10.70;99.90;;;;;;5115708;27;38450;-63
2021/12/15 00:51:49;;;;;;;36.75;17.30;;;10.70;99.90;;;;;;5116000;27;36976;-63
2021/12/15 00:54:16;;;;;;;32.55;16.73;;;10.70;99.90;;;;;;5115896;27;37739;-63
2021/12/15 00:56:44;;;;;;;38.55;18.27;;;10.80;99.90;;;;;;5114965;27;38112;-62
2021/12/15 00:59:14;;;;;;;36.50;16.33;;;10.70;99.90;;;;;;5116421;27;35864;-62
2021/12/15 01:01:43;;;;;;;33.38;17.45;;;10.70;99.90;;;;;;5112932;27;36329;-62
2021/12/15 01:04:14;;;;;;;45.50;18.50;;;10.70;99.90;;;;;;5115395;27;37416;-63
2021/12/15 01:06:45;;;;;;;35.05;17.55;;;10.80;99.90;;;;;;5115514;27;38464;-62
2021/12/15 01:09:20;;;;;;;33.30;15.80;;;10.80;99.90;;;;;;5115200;27;36964;-62
2021/12/15 01:12:08;;;;;;;39.67;17.60;;;10.80;99.90;;;;;;5115568;27;39590;-62
2021/12/15 01:20:19;;;;;;;39.67;16.30;;;10.80;99.90;;;;;;5116149;27;38095;-63
2021/12/15 01:22:50;;;;;;;40.15;19.83;;;10.80;99.90;;;;;;5113288;27;39633;-63
2021/12/15 01:25:21;;;;;;;36.88;16.77;;;10.80;99.90;;;;;;5114666;27;37250;-62
2021/12/15 01:27:52;;;;;;;39.72;18.25;;;10.80;99.90;;;;;;5116074;27;38382;-63
2021/12/15 01:30:21;;;;;;;33.25;17.58;;;10.80;99.90;;;;;;5114435;27;37042;-62
2021/12/15 01:32:51;;;;;;;30.55;18.40;;;10.70;99.90;;;;;;5113440;27;36921;-62
2021/12/15 01:35:19;;;;;;;31.88;16.33;;;10.70;99.90;;;;;;5115440;27;38321;-62
2021/12/15 01:37:47;;;;;;;37.25;18.65;;;10.80;99.90;;;;;;5114740;27;37178;-62
2021/12/15 01:40:30;;;;;;;41.97;18.70;;;10.80;99.90;;;;;;5115693;27;36180;-62
2021/12/15 01:42:57;;;;;;;35.42;18.70;;;10.80;99.90;;;;;;5115675;27;38511;-62
2021/12/15 01:48:14;;;;;;;40.58;18.00;;;10.80;99.90;;;;;;5115056;27;40408;-62
2021/12/15 01:50:42;;;;;;;44.30;19.38;;;10.80;99.90;;;;;;5115402;27;37586;-63
2021/12/15 01:53:11;;;;;;;43.83;20.42;;;10.80;99.90;;;;;;5115027;27;36442;-62
2021/12/15 01:55:38;;;;;;;38.83;18.98;;;10.80;99.90;;;;;;5114157;27;36932;-62
2021/12/15 01:58:06;;;;;;;37.35;20.75;;;10.80;99.90;;;;;;5114333;27;37783;-62
2021/12/15 02:00:40;;;;;;;40.63;20.88;;;10.80;99.90;;;;;;5113040;27;37201;-63
2021/12/15 02:03:08;;;;;;;35.83;20.15;;;10.80;99.90;;;;;;5114217;27;34445;-62
2021/12/15 02:05:37;;;;;;;32.55;20.70;;;10.80;99.90;;;;;;5115129;27;37663;-62
2021/12/15 02:08:07;;;;;;;36.88;20.23;;;10.80;99.90;;;;;;5114202;27;36221;-62
2021/12/15 02:10:38;;;;;;;40.88;21.52;;;10.80;99.90;;;;;;5115151;27;37189;-63
2021/12/15 02:13:08;;;;;;;33.08;20.00;;;10.90;99.90;;;;;;5114803;27;38135;-62
2021/12/15 02:15:38;;;;;;;38.47;21.23;;;10.80;99.90;;;;;;5113913;27;36294;-62
2021/12/15 02:18:09;;;;;;;39.38;20.42;;;10.80;99.90;;;;;;5114935;27;37282;-62
2021/12/15 02:20:40;;;;;;;40.30;21.58;;;10.80;99.90;;;;;;5115594;27;37994;-62
2021/12/15 02:23:09;;;;;;;33.85;20.13;;;10.80;99.90;;;;;;5113603;27;34294;-63
2021/12/15 02:25:37;;;;;;;45.55;22.08;;;10.80;99.90;;;;;;5113988;27;37722;-62
2021/12/15 02:28:07;;;;;;;39.05;21.23;;;10.80;99.90;;;;;;5114889;27;37501;-62
2021/12/15 02:30:49;;;;;;;37.40;20.92;;;10.80;99.90;;;;;;5115239;27;37636;-62
2021/12/15 02:38:51;;;;;;;41.15;21.88;;;10.90;99.90;;;;;;5113245;27;38982;-63
2021/12/15 02:41:23;;;;;;;40.72;21.48;;;11.10;99.90;;;;;;5113558;27;37221;-62
2021/12/15 02:43:54;;;;;;;46.10;23.70;;;10.90;99.90;;;;;;5113508;27;37891;-62
2021/12/15 02:46:21;;;;;;;40.95;21.58;;;10.90;99.90;;;;;;5114258;27;36362;-62
2021/12/15 02:48:50;;;;;;;37.58;21.05;;;10.90;99.90;;;;;;5111343;27;37472;-63
2021/12/15 02:51:20;;;;;;;38.08;20.38;;;10.90;99.90;;;;;;5112860;27;36088;-63
2021/12/15 02:53:49;;;;;;;44.28;22.27;;;10.90;99.90;;;;;;5113898;27;38450;-63
2021/12/15 02:56:16;;;;;;;37.30;21.08;;;10.90;99.90;;;;;;5113607;27;38671;-62
2021/12/15 02:58:51;;;;;;;33.58;21.52;;;10.90;99.90;;;;;;5113020;27;37354;-62
2021/12/15 03:01:26;;;;;;;36.22;22.42;;;10.90;99.90;;;;;;5113538;27;36139;-62
2021/12/15 03:06:49;;;;;;;48.78;23.13;;;10.80;99.90;;;;;;5114247;27;37299;-63
2021/12/15 03:15:18;;;;;;;37.70;22.70;;;10.90;99.90;;;;;;5114241;27;37199;-63
2021/12/15 03:15:30;;;;;;;42.75;22.73;;;10.80;99.90;;;;;;5111743;27;37758;-62
2021/12/15 03:18:00;;;;;;;41.75;22.25;;;10.80;99.90;;;;;;5114098;27;37830;-62
2021/12/15 03:20:29;;;;;;;39.55;22.08;;;10.80;99.90;;;;;;5112651;27;37798;-62
2021/12/15 03:22:59;;;;;;;41.15;23.58;;;10.80;99.90;;;;;;5112463;27;37238;-62
2021/12/15 03:25:29;;;;;;;41.92;21.88;;;10.80;99.90;;;;;;5113389;27;35423;-63
2021/12/15 03:33:54;;;;;;;37.22;21.73;;;10.90;99.90;;;;;;5112455;27;38546;-62
2021/12/15 03:36:37;;;;;;;40.13;23.20;;;10.90;99.90;;;;;;5112746;27;36844;-62
2021/12/15 03:39:08;;;;;;;45.97;21.52;;;10.80;99.90;;;;;;5112953;27;36567;-62
2021/12/15 03:41:36;;;;;;;40.17;22.73;;;10.80;99.90;;;;;;5112115;27;36258;-62
2021/12/15 03:44:07;;;;;;;39.90;23.15;;;10.80;99.90;;;;;;5113376;27;37559;-62
2021/12/15 03:46:34;;;;;;;40.47;24.13;;;10.80;99.90;;;;;;5114231;27;37309;-54
2021/12/15 03:49:02;;;;;;;48.03;24.55;;;10.80;99.90;;;;;;5113244;27;36202;-54
2021/12/15 03:51:29;;;;;;;40.97;22.25;;;10.80;99.90;;;;;;5112110;27;37823;-54
2021/12/15 03:53:56;;;;;;;44.35;23.60;;;10.80;99.90;;;;;;5113287;27;38112;-54
2021/12/15 03:56:25;;;;;;;39.22;23.40;;;10.80;99.90;;;;;;5111490;27;39064;-54
2021/12/15 03:58:54;;;;;;;43.17;22.83;;;10.80;99.90;;;;;;5112821;27;37652;-54
2021/12/15 04:01:23;;;;;;;42.55;23.33;;;10.80;99.90;;;;;;5112109;27;37191;-54
2021/12/15 04:03:53;;;;;;;42.00;22.17;;;10.80;99.90;;;;;;5113502;27;38507;-54
2021/12/15 04:06:24;;;;;;;48.50;22.25;;;10.80;99.90;;;;;;5112826;27;36612;-54
2021/12/15 04:08:52;;;;;;;36.97;20.85;;;10.80;99.90;;;;;;5114446;27;37527;-54
2021/12/15 04:11:22;;;;;;;47.17;22.85;;;10.80;99.90;;;;;;5114811;27;37147;-54
2021/12/15 04:13:51;;;;;;;38.85;21.42;;;10.80;99.90;;;;;;5116113;27;37314;-54
2021/12/15 04:16:42;;;;;;;37.97;21.27;;;10.80;99.90;;;;;;5116177;27;36947;-54
2021/12/15 04:19:11;;;;;;;40.67;21.67;;;10.80;99.90;;;;;;5116237;27;38947;-54
2021/12/15 04:21:40;;;;;;;36.97;20.50;;;10.90;99.90;;;;;;5115544;27;37030;-54
2021/12/15 04:24:07;;;;;;;44.05;22.20;;;10.80;99.90;;;;;;5116011;27;36930;-54
2021/12/15 04:26:35;;;;;;;41.88;22.02;;;10.90;99.90;;;;;;5115583;27;36614;-54
2021/12/15 04:29:05;;;;;;;39.22;21.17;;;10.90;99.90;;;;;;5116847;27;38695;-54
2021/12/15 04:31:36;;;;;;;34.78;19.33;;;10.90;99.90;;;;;;5115863;27;39645;-62
2021/12/15 04:34:06;;;;;;;42.53;21.63;;;10.90;99.90;;;;;;5115720;27;37237;-62
2021/12/15 04:36:36;;;;;;;36.33;20.38;;;10.90;99.90;;;;;;5116551;27;35464;-62
2021/12/15 04:39:07;;;;;;;35.90;19.92;;;10.90;99.90;;;;;;5116384;27;37208;-54
2021/12/15 04:41:34;;;;;;;41.42;20.67;;;10.90;99.90;;;;;;5115154;27;39894;-54
2021/12/15 04:44:10;;;;;;;41.00;20.05;;;10.80;99.90;;;;;;5115432;27;35916;-54
2021/12/15 04:46:39;;;;;;;44.17;21.10;;;10.90;99.90;;;;;;5115926;27;36989;-54
2021/12/15 04:49:09;;;;;;;41.47;20.50;;;10.80;99.90;;;;;;5115859;27;37167;-62
2021/12/15 04:51:37;;;;;;;39.05;19.58;;;10.80;99.90;;;;;;5114909;27;38580;-62
2021/12/15 04:54:04;;;;;;;37.70;21.52;;;10.80;99.90;;;;;;5115830;27;37953;-62
2021/12/15 04:56:32;;;;;;;38.17;20.33;;;10.80;99.90;;;;;;5115526;27;39374;-62
2021/12/15 04:58:59;;;;;;;42.97;23.27;;;10.80;99.90;;;;;;5113756;27;36638;-62
2021/12/15 05:01:28;;;;;;;35.05;21.63;;;10.80;99.90;;;;;;5113981;27;37158;-62
2021/12/15 05:03:56;;;;;;;43.63;22.13;;;10.80;99.90;;;;;;5116026;27;37879;-62
2021/12/15 05:06:23;;;;;;;37.95;20.23;;;10.80;99.90;;;;;;5115773;27;36336;-54
2021/12/15 05:08:51;;;;;;;48.17;24.15;;;10.90;99.90;;;;;;5115311;27;37489;-54
2021/12/15 05:11:18;;;;;;;41.05;21.08;;;10.80;99.90;;;;;;5115184;27;36118;-54
2021/12/15 05:13:52;;;;;;;42.03;21.35;;;10.80;99.90;;;;;;5115791;27;37367;-54
2021/12/15 05:16:19;;;;;;;42.33;23.27;;;10.80;99.90;;;;;;5112842;27;37615;-54
2021/12/15 05:18:49;;;;;;;44.22;21.75;;;10.80;99.90;;;;;;5114920;27;37880;-54
2021/12/15 05:21:16;;;;;;;46.03;23.23;;;10.80;99.90;;;;;;5115420;27;37067;-54
2021/12/15 05:23:48;;;;;;;48.15;24.42;;;10.80;99.90;;;;;;5114923;27;38064;-54
2021/12/15 05:26:16;;;;;;;36.55;21.10;;;10.80;99.90;;;;;;5114792;27;36888;-54
2021/12/15 05:28:43;;;;;;;40.90;22.10;;;10.80;99.90;;;;;;5115791;27;36253;-54
2021/12/15 05:31:11;;;;;;;42.92;22.25;;;10.80;99.90;;;;;;5113787;27;39762;-54
2021/12/15 05:33:38;;;;;;;41.95;21.92;;;10.80;99.90;;;;;;5114030;27;38633;-54
2021/12/15 05:36:07;;;;;;;37.63;21.23;;;10.80;99.90;;;;;;5114812;27;36739;-54
2021/12/15 05:38:34;;;;;;;42.92;21.55;;;10.80;99.90;;;;;;5115064;27;38065;-54
2021/12/15 05:41:02;;;;;;;40.30;22.27;;;10.80;99.90;;;;;;5114975;27;37325;-54
2021/12/15 05:43:29;;;;;;;36.33;20.33;;;10.80;99.90;;;;;;5114357;27;38990;-54
2021/12/15 05:45:57;;;;;;;39.47;21.77;;;10.80;99.90;;;;;;5115362;27;37188;-54
2021/12/15 05:48:24;;;;;;;43.90;21.77;;;10.80;99.90;;;;;;5114353;27;41438;-54
2021/12/15 05:50:54;;;;;;;39.85;20.33;;;10.80;99.90;;;;;;5115864;27;37831;-54
2021/12/15 05:53:23;;;;;;;49.67;22.13;;;10.80;99.90;;;;;;5115690;27;37568;-54
2021/12/15 05:55:52;;;;;;;39.58;21.88;;;10.90;99.90;;;;;;5114533;27;35545;-54
2021/12/15 05:58:20;;;;;;;42.08;22.02;;;10.80;99.90;;;;;;5114464;27;36576;-54
2021/12/15 06:00:48;;;;;;;45.92;22.73;;;10.80;99.90;;;;;;5113526;27;36085;-54
2021/12/15 06:03:17;;;;;;;44.30;22.48;;;10.90;99.90;;;;;;5114126;27;37028;-54
2021/12/15 06:05:44;;;;;;;34.47;21.52;;;10.90;99.90;;;;;;5114292;27;35555;-54
2021/12/15 06:08:12;;;;;;;35.38;21.17;;;10.90;99.90;;;;;;5113627;27;37508;-54
2021/12/15 06:10:42;;;;;;;40.67;23.08;;;10.80;99.90;;;;;;5112951;27;38410;-54
2021/12/15 06:13:11;;;;;;;48.00;23.60;;;10.90;99.90;;;;;;5113058;27;37620;-54
2021/12/15 06:15:41;;;;;;;46.42;22.25;;;10.80;99.90;;;;;;5114124;27;38334;-54
2021/12/15 06:18:11;;;;;;;42.20;22.35;;;10.90;99.90;;;;;;5112536;27;37606;-54
2021/12/15 06:20:40;;;;;;;39.42;20.77;;;10.90;99.90;;;;;;5113210;27;38586;-54
2021/12/15 06:23:10;;;;;;;44.30;22.10;;;10.90;99.90;;;;;;5112830;27;37341;-54
2021/12/15 06:25:38;;;;;;;38.17;21.48;;;10.90;99.90;;;;;;5112887;27;36165;-54
2021/12/15 06:28:08;;;;;;;44.05;22.40;;;10.90;99.90;;;;;;5112691;27;37708;-55
2021/12/15 06:30:38;;;;;;;41.97;22.45;;;10.90;99.90;;;;;;5111425;27;36405;-54
2021/12/15 06:33:07;;;;;;;38.97;21.00;;;10.90;99.90;;;;;;5113444;27;36689;-55
2021/12/15 06:35:35;;;;;;;37.95;20.38;;;10.90;99.90;;;;;;5113647;27;37464;-54
2021/12/15 06:38:03;;;;;;;39.42;21.38;;;10.90;99.90;;;;;;5113780;27;37365;-55
2021/12/15 06:40:30;;;;;;;39.72;20.88;;;10.90;99.90;;;;;;5113562;27;37813;-55
2021/12/15 06:42:58;;;;;;;37.22;19.95;;;10.90;99.90;;;;;;5114521;27;37477;-54
2021/12/15 06:45:34;;;;;;;36.63;20.25;;;10.90;99.90;;;;;;5113760;27;36194;-54
2021/12/15 06:59:03;;;;;;;33.38;19.15;;;10.90;99.90;;;;;;5112465;27;39133;-63
2021/12/15 07:01:32;;;;;;;39.03;19.08;;;10.80;99.90;;;;;;5110965;27;38126;-63
2021/12/15 07:03:59;;;;;;;33.70;18.65;;;10.90;99.90;;;;;;5110566;27;37911;-63
2021/12/15 07:06:29;;;;;;;34.55;19.00;;;10.90;99.90;;;;;;5111951;27;35468;-63
2021/12/15 07:08:57;;;;;;;39.03;19.73;;;10.90;99.90;;;;;;5112492;27;35548;-63
2021/12/15 07:11:25;;;;;;;39.17;19.92;;;10.90;99.90;;;;;;5113339;27;37227;-63
2021/12/15 07:13:55;;;;;;;33.03;16.42;;;10.90;99.90;;;;;;5112001;27;35480;-62
2021/12/15 07:16:23;;;;;;;39.67;17.42;;;10.90;99.90;;;;;;5110936;27;37761;-63
2021/12/15 07:19:04;;;;;;;35.25;18.08;;;10.90;99.90;;;;;;5112355;27;37309;-63
2021/12/15 07:21:35;;;;;;;36.22;17.40;;;10.90;99.90;;;;;;5111392;27;38602;-63
2021/12/15 07:24:03;;;;;;;34.88;18.70;;;10.90;99.90;;;;;;5113277;27;39187;-63
2021/12/15 07:26:30;;;;;;;33.35;18.48;;;10.90;99.90;;;;;;5113093;27;36541;-63
2021/12/15 07:28:58;;;;;;;34.78;17.27;;;10.90;99.90;;;;;;5113209;27;37616;-63
2021/12/15 07:31:25;;;;;;;33.88;17.30;;;10.90;99.90;;;;;;5112108;27;37891;-63
2021/12/15 07:33:57;;;;;;;32.22;16.40;;;10.90;99.90;;;;;;5114397;27;38427;-63
2021/12/15 07:36:24;;;;;;;37.13;17.17;;;10.90;99.90;;;;;;5111183;27;36772;-63
2021/12/15 07:38:54;;;;;;;32.25;15.68;;;10.90;99.90;;;;;;5112973;27;37322;-62
2021/12/15 07:41:30;;;;;;;31.05;16.65;;;10.90;99.80;;;;;;5113979;27;37248;-62
2021/12/15 07:44:00;;;;;;;27.90;15.02;;;10.90;99.80;;;;;;5111280;27;38257;-62
2021/12/15 07:46:28;;;;;;;31.83;16.27;;;10.90;99.80;;;;;;5112353;27;38304;-62
2021/12/15 07:48:57;;;;;;;27.85;15.00;;;10.90;99.90;;;;;;5112116;27;38248;-63
2021/12/15 07:51:26;;;;;;;33.72;15.50;;;10.90;99.90;;;;;;5108801;27;38134;-62
2021/12/15 07:53:54;;;;;;;27.63;14.60;;;10.90;99.80;;;;;;5111298;27;38749;-62
2021/12/15 07:56:21;;;;;;;30.55;15.20;;;10.90;99.80;;;;;;5111099;27;36924;-62
2021/12/15 07:58:49;;;;;;;31.95;15.52;;;10.90;99.80;;;;;;5110982;27;39052;-63
2021/12/15 08:01:18;;;;;;;29.15;14.77;;;10.90;99.80;;;;;;5110796;27;38671;-63
2021/12/15 08:03:51;;;;;;;27.65;14.45;;;10.90;99.80;;;;;;5113321;27;38017;-63
2021/12/15 08:06:20;;;;;;;27.95;14.05;;;10.90;99.80;;;;;;5111620;27;37207;-63
2021/12/15 08:08:47;;;;;;;27.58;13.10;;;10.80;99.70;;;;;;5110896;27;39559;-63
2021/12/15 08:11:14;;;;;;;25.55;12.63;;;10.80;99.60;;;;;;5109942;27;36432;-63
2021/12/15 08:13:42;;;;;;;22.92;12.27;;;10.80;99.60;;;;;;5109899;27;39533;-62
2021/12/15 08:16:09;;;;;;;26.90;13.00;;;10.80;99.60;;;;;;5110860;27;36847;-63
2021/12/15 08:18:37;;;;;;;26.00;12.55;;;10.80;99.50;;;;;;5112050;27;37771;-55
2021/12/15 08:21:05;;;;;;;26.13;11.38;;;10.80;99.50;;;;;;5112592;27;40796;-55
2021/12/15 08:23:35;;;;;;;23.92;11.60;;;10.80;99.50;;;;;;5113064;27;37652;-55
2021/12/15 08:26:02;;;;;;;19.25;10.50;;;10.80;99.50;;;;;;5111039;27;37098;-63
2021/12/15 08:28:30;;;;;;;22.65;11.02;;;10.80;99.50;;;;;;5112165;27;39394;-62
2021/12/15 08:30:59;;;;;;;24.48;11.50;;;10.80;99.50;;;;;;5109642;27;38557;-62
2021/12/15 08:33:27;;;;;;;23.38;11.05;;;10.80;99.40;;;;;;5112390;27;38360;-62
2021/12/15 08:35:58;;;;;;;28.27;12.02;;;10.80;99.50;;;;;;5111732;27;37800;-63
2021/12/15 08:38:27;;;;;;;24.95;11.20;;;10.80;99.40;;;;;;5112238;27;37559;-62
2021/12/15 08:40:56;;;;;;;26.33;11.55;;;10.80;99.40;;;;;;5112607;27;37606;-55
2021/12/15 08:43:25;;;;;;;30.30;13.15;;;10.80;99.40;;;;;;5113826;27;36918;-63
2021/12/15 08:45:59;;;;;;;22.63;12.15;;;10.80;99.40;;;;;;5111072;27;37906;-55
2021/12/15 08:48:26;;;;;;;27.60;12.35;;;10.80;99.40;;;;;;5111197;27;38220;-55
2021/12/15 08:50:55;;;;;;;30.88;13.98;;;10.90;99.50;;;;;;5112129;27;36634;-55
2021/12/15 08:53:22;;;;;;;23.10;12.70;;;10.90;99.40;;;;;;5112439;27;38216;-63
2021/12/15 08:55:50;;;;;;;26.27;12.70;;;10.90;99.40;;;;;;5113052;27;36315;-55
2021/12/15 08:58:21;;;;;;;26.40;12.20;;;11.00;99.40;;;;;;5115924;27;36856;-55
2021/12/15 09:00:51;;;;;;;28.33;12.25;;;11.00;99.30;;;;;;5115828;27;38666;-55
2021/12/15 09:03:21;;;;;;;29.00;13.00;;;11.00;99.20;;;;;;5114745;27;37690;-55
2021/12/15 09:05:49;;;;;;;23.52;11.88;;;11.00;99.20;;;;;;5116203;27;36828;-63
2021/12/15 09:08:16;;;;;;;25.20;11.75;;;11.00;99.20;;;;;;5116174;27;37485;-63
2021/12/15 09:10:45;;;;;;;24.48;10.98;;;11.00;99.10;;;;;;5115563;27;38942;-55
2021/12/15 09:13:13;;;;;;;26.80;11.93;;;11.00;99.10;;;;;;5115438;27;39975;-55
2021/12/15 09:15:43;;;;;;;28.80;12.45;;;11.10;99.10;;;;;;5115214;27;38960;-55
2021/12/15 09:18:13;;;;;;;21.45;11.32;;;11.10;99.00;;;;;;5114750;27;37800;-55
2021/12/15 09:20:42;;;;;;;30.27;12.63;;;11.10;98.90;;;;;;5116111;27;37933;-55
2021/12/15 09:23:14;;;;;;;28.92;12.77;;;11.20;98.90;;;;;;5115716;27;36998;-55
2021/12/15 09:25:42;;;;;;;26.85;11.85;;;11.40;98.80;;;;;;5115741;27;36405;-55
2021/12/15 09:28:10;;;;;;;29.02;13.38;;;11.60;98.50;;;;;;5115259;27;37656;-55
2021/12/15 09:30:43;;;;;;;26.05;13.05;;;11.80;98.50;;;;;;5116763;27;38005;-62
2021/12/15 09:33:13;;;;;;;22.33;11.02;;;12.10;98.10;;;;;;5115410;27;37404;-55
2021/12/15 09:35:40;;;;;;;28.35;12.80;;;12.30;97.40;;;;;;5115577;27;36720;-55
2021/12/15 09:38:08;;;;;;;22.52;12.40;;;12.30;97.10;;;;;;5115535;27;36229;-55
2021/12/15 09:40:35;;;;;;;21.35;10.25;;;12.20;97.00;;;;;;5116068;27;37409;-55
2021/12/15 09:43:04;;;;;;;19.65;11.30;;;12.00;97.10;;;;;;5115784;27;37319;-55
2021/12/15 09:45:41;;;;;;;20.95;10.77;;;11.90;97.00;;;;;;5114818;27;38453;-63
2021/12/15 09:57:07;;;;;;;21.30;9.90;;;11.80;97.20;;;;;;5114190;27;39003;-62
2021/12/15 10:02:36;;;;;;;17.63;8.48;;;11.70;97.00;;;;;;5114197;27;39256;-55
2021/12/15 10:05:16;;;;;;;15.63;8.35;;;11.70;96.90;;;;;;5114976;27;37701;-55
2021/12/15 10:19:21;;;;;;;22.55;9.00;;;11.60;96.50;;;;;;5114322;27;37266;-56
2021/12/15 10:22:06;;;;;;;19.08;10.18;;;11.50;96.40;;;;;;5115265;27;36279;-64
2021/12/15 10:24:44;;;;;;;21.10;9.05;;;11.50;96.50;;;;;;5113878;27;36779;-64
2021/12/15 10:27:11;;;;;;;16.08;8.15;;;11.50;96.50;;;;;;5113816;27;38444;-57
2021/12/15 10:29:57;;;;;;;16.00;8.75;;;11.50;96.50;;;;;;5115214;27;35314;-56
2021/12/15 10:32:30;;;;;;;20.00;9.77;;;11.50;96.50;;;;;;5115093;27;37565;-56
2021/12/15 10:35:04;;;;;;;16.55;8.32;;;11.50;96.60;;;;;;5113987;27;37981;-56
2021/12/15 10:37:32;;;;;;;18.67;9.05;;;11.50;96.60;;;;;;5113872;27;38178;-64
2021/12/15 10:40:17;;;;;;;15.52;7.93;;;11.50;96.60;;;;;;5114116;27;36275;-64
2021/12/15 10:42:45;;;;;;;15.55;8.05;;;11.50;96.60;;;;;;5115250;27;38254;-56
2021/12/15 10:45:15;;;;;;;15.13;7.88;;;11.50;96.60;;;;;;5112267;27;37978;-56
2021/12/15 10:47:45;;;;;;;21.30;7.63;;;11.50;96.50;;;;;;5114042;27;38474;-56
2021/12/15 10:50:16;;;;;;;19.52;7.95;;;11.50;96.30;;;;;;5113493;27;35987;-56
2021/12/15 10:52:56;;;;;;;18.80;8.00;;;11.50;96.30;;;;;;5113329;27;36331;-64
2021/12/15 10:55:32;;;;;;;17.15;7.78;;;11.50;96.30;;;;;;5113470;27;39288;-64
2021/12/15 10:58:00;;;;;;;17.75;7.65;;;11.50;96.00;;;;;;5113873;27;38184;-64
2021/12/15 11:00:35;;;;;;;18.25;9.20;;;11.50;96.30;;;;;;5112696;27;36352;-56
2021/12/15 11:03:06;;;;;;;16.48;7.60;;;11.50;96.30;;;;;;5111794;27;38039;-56
2021/12/15 11:05:34;;;;;;;16.23;7.95;;;11.50;96.30;;;;;;5114568;27;36656;-56
2021/12/15 11:08:01;;;;;;;16.67;7.97;;;11.50;96.30;;;;;;5114338;27;38017;-56
2021/12/15 11:10:34;;;;;;;16.65;7.50;;;11.50;96.10;;;;;;5114101;27;37456;-56
2021/12/15 11:13:04;;;;;;;15.68;6.93;;;11.60;96.20;;;;;;5114718;27;38882;-57
2021/12/15 11:15:36;;;;;;;20.08;7.53;;;11.60;96.20;;;;;;5111927;27;37592;-57
2021/12/15 11:18:11;;;;;;;12.55;6.47;;;11.60;96.10;;;;;;5114517;27;40666;-65
2021/12/15 11:20:40;;;;;;;16.13;6.97;;;11.70;96.00;;;;;;5113482;27;37930;-64
2021/12/15 11:23:09;;;;;;;15.45;7.07;;;11.70;96.00;;;;;;5114339;27;36343;-64
2021/12/15 11:25:45;;;;;;;13.75;6.53;;;11.70;95.90;;;;;;5115985;27;37652;-64
2021/12/15 11:28:17;;;;;;;16.42;5.90;;;11.70;95.70;;;;;;5115968;27;39042;-64
2021/12/15 11:30:49;;;;;;;13.07;6.25;;;11.70;95.80;;;;;;5115987;27;36684;-56
2021/12/15 11:33:19;;;;;;;16.80;6.30;;;11.70;95.90;;;;;;5115263;27;36208;-56
2021/12/15 11:35:49;;;;;;;17.48;5.53;;;11.80;95.80;;;;;;5115611;27;37760;-54
2021/12/15 11:38:21;;;;;;;14.23;5.40;;;11.70;95.50;;;;;;5116625;27;20108;-54
2021/12/15 11:41:02;;;;;;;12.15;4.85;;;11.80;95.40;;;;;;5117012;27;37091;-54
2021/12/15 11:43:40;;;;;;;15.48;6.60;;;11.90;95.40;;;;;;5116932;27;37495;-54
2021/12/15 11:46:21;;;;;;;11.90;4.45;;;11.90;95.30;;;;;;5116466;27;37726;-54
2021/12/15 11:48:50;;;;;;;12.52;4.15;;;11.90;95.00;;;;;;5116670;27;38631;-62
2021/12/15 11:51:32;;;;;;;15.55;4.65;;;11.90;95.00;;;;;;5116799;27;35882;-62
2021/12/15 11:54:00;;;;;;;9.68;3.03;;;11.80;94.80;;;;;;5116618;27;36363;-62
2021/12/15 11:56:33;;;;;;;9.10;3.35;;;11.80;94.70;;;;;;5116245;27;40027;-61
2021/12/15 11:59:16;;;;;;;10.20;3.72;;;11.90;94.60;;;;;;5116352;27;38375;-54
2021/12/15 12:01:51;;;;;;;11.93;3.60;;;11.80;94.40;;;;;;5114196;27;37351;-62
2021/12/15 12:04:25;;;;;;;10.80;3.35;;;11.80;94.50;;;;;;5116356;27;37512;-62
2021/12/15 12:06:56;;;;;;;12.30;3.53;;;11.80;94.50;;;;;;5116262;27;37733;-62
2021/12/15 12:09:24;;;;;;;12.50;3.72;;;11.80;94.50;;;;;;5116490;27;37958;-54
2021/12/15 12:11:59;;;;;;;8.45;3.20;;;11.80;94.50;;;;;;5115981;27;37260;-54
2021/12/15 12:17:14;;;;;;;9.05;3.38;;;11.80;94.50;;;;;;5113716;27;38012;-62
2021/12/15 12:19:49;;;;;;;10.55;3.10;;;11.70;94.40;;;;;;5116150;27;37357;-62
2021/12/15 12:22:18;;;;;;;9.57;2.92;;;11.70;94.30;;;;;;5116292;27;37753;-62
2021/12/15 12:24:48;;;;;;;13.05;3.03;;;11.70;94.20;;;;;;5114790;27;37010;-62
2021/12/15 12:27:18;;;;;;;8.13;2.78;;;11.70;94.10;;;;;;5115047;27;38276;-62
2021/12/15 12:29:45;;;;;;;8.63;2.90;;;11.70;94.20;;;;;;5115202;27;38463;-54
2021/12/15 12:32:13;;;;;;;10.10;3.05;;;11.70;94.20;;;;;;5118251;27;38012;-54
2021/12/15 12:34:42;;;;;;;11.90;3.35;;;11.60;94.20;;;;;;5118618;27;36869;-62
2021/12/15 12:37:12;;;;;;;11.50;3.00;;;11.60;94.20;;;;;;5118253;27;36456;-62
2021/12/15 12:39:40;;;;;;;10.35;3.08;;;11.60;94.20;;;;;;5117816;27;37407;-54
2021/12/15 12:42:09;;;;;;;6.80;2.90;;;11.50;94.10;;;;;;5118984;27;36733;-54
2021/12/15 12:44:44;;;;;;;8.32;2.85;;;11.50;94.30;;;;;;5118464;27;36525;-54
2021/12/15 12:47:27;;;;;;;12.65;3.55;;;11.50;94.30;;;;;;5117576;27;37559;-54
2021/12/15 12:50:18;;;;;;;9.40;3.20;;;11.50;94.30;;;;;;5117760;27;37413;-62
2021/12/15 13:01:21;;;;;;;7.60;2.60;;;11.50;94.00;;;;;;5118887;27;38965;-62
2021/12/15 13:03:53;;;;;;;8.25;2.20;;;11.50;93.90;;;;;;5118410;27;36279;-62
2021/12/15 13:06:23;;;;;;;9.13;2.50;;;11.50;93.70;;;;;;5118839;27;37851;-62
2021/12/15 13:08:54;;;;;;;6.63;1.73;;;11.50;93.40;;;;;;5115298;27;36545;-62
2021/12/15 13:11:34;;;;;;;7.10;1.52;;;11.40;93.20;;;;;;5117312;27;37310;-54
2021/12/15 13:14:06;;;;;;;7.15;1.80;;;11.40;93.20;;;;;;5116910;27;36793;-54
2021/12/15 13:16:40;;;;;;;6.75;1.98;;;11.30;93.10;;;;;;5117005;27;37904;-54
2021/12/15 13:19:20;;;;;;;7.45;1.85;;;11.30;93.10;;;;;;5117897;27;37667;-54
2021/12/15 13:21:58;;;;;;;8.82;1.90;;;11.30;93.20;;;;;;5117975;27;37981;-62
2021/12/15 13:30:46;;;;;;;6.53;1.75;;;11.30;92.40;;;;;;5111306;27;41091;-62
2021/12/15 13:33:18;;;;;;;8.15;1.40;;;11.20;92.90;;;;;;5114420;27;37315;-62
2021/12/15 13:35:50;;;;;;;6.03;1.60;;;11.10;92.80;;;;;;5116040;27;36732;-61
2021/12/15 13:38:22;;;;;;;10.00;1.58;;;11.10;92.80;;;;;;5115294;27;39404;-62
2021/12/15 13:41:13;;;;;;;10.35;1.95;;;11.00;92.90;;;;;;5115832;27;38923;-62
2021/12/15 13:43:54;;;;;;;5.65;1.40;;;11.00;92.80;;;;;;5116210;27;36886;-61
2021/12/15 13:46:42;;;;;;;4.45;2.13;;;11.00;93.00;;;;;;5116918;27;36650;-61
2021/12/15 13:49:21;;;;;;;5.30;1.63;;;10.90;92.90;;;;;;5117110;27;37409;-62
2021/12/15 13:52:37;;;;;;;6.65;1.63;;;10.90;92.80;;;;;;5117590;27;36374;-62
2021/12/15 13:55:19;;;;;;;5.75;1.95;;;10.80;92.70;;;;;;5079735;27;37508;-61
2021/12/15 13:57:57;;;;;;;8.55;1.58;;;10.80;92.70;;;;;;5112453;27;36703;-62
2021/12/15 14:00:29;;;;;;;9.55;1.60;;;10.70;92.80;;;;;;5116192;27;38842;-62
2021/12/15 14:03:14;;;;;;;6.10;1.73;;;10.70;92.90;;;;;;5115820;27;38160;-62
2021/12/15 14:05:45;;;;;;;8.35;1.73;;;10.60;92.80;;;;;;5116920;27;41627;-62
2021/12/15 14:08:15;;;;;;;7.80;1.50;;;10.60;92.80;;;;;;5118067;27;37276;-62